Flight Briefing for CPX405

Departure Arrival
Nashville International Airport (KBNA)
Click to view FAA NOTAMS
Miami International Airport (KMIA)
Click to view FAA NOTAMS
Departure Time Arrival Time
N/A N/A
Aircraft Distance
B757-200SF 702nm
Departure METAR Arrival METAR
KBNA 271053Z 00000KT 10SM BKN250 21/17 A3005 RMK AO2 SLP169 T02110167 $ KMIA 271053Z 07007KT 10SM FEW024 26/20 A3005 RMK AO2 SLP175 T02610200
Suggested Route
TIPPN3 BRXTN BULZI NICKI Q81 ENDEW JUULI SSCOT5


View recent IFR Routes data
Notes



Charts and Procedures

Charts for KBNA
No chart available
Charts for KMIA
No chart available

Windy.com Weather Map